Terminal Aerodrome Forecast
Issued by NWS Denver/Boulder, CO

Home | Current Version | Previous Version | Text Only | Print | Product List | Glossary On
Versions: 1 2 3 4 5 6 7 8 9 10 11 12 13 14 15 16 17 18 19 20 21 22 23 24 25 26 27 28 29 30 31 32 33 34 35 36 37 38 39 40 41 42 43 44 45 46 47 48 49
000
FTUS45 KBOU 301725
TAFDEN
TAF
KDEN 301725Z 3018/0124 35016KT 2SM -SN BR BKN008 BKN015 OVC020
      TEMPO 3018/3019 1SM -SN BR OVC008
     FM301900 35014KT 3SM -SN BR BKN008 BKN015 OVC020
      TEMPO 3019/3021 1 1/2SM -SN BR OVC006
     FM302100 36016KT P6SM -SN SCT015 OVC025
      TEMPO 3021/3024 4SM -SNRA BKN012
     FM010000 36017G27KT P6SM VCSH SCT010 OVC020
      TEMPO 0100/0102 2SM -SN BR FEW007 OVC010
     FM010600 34008KT P6SM SCT004 OVC010 PROB30 0106/0112 3SM -SN BR
      BKN007
     FM011200 03005KT 3SM -SN BR SCT008 OVC015
     FM011800 06012KT P6SM VCSH SCT015 OVC025=

USA.gov is the U.S. government's official web portal to all federal, state and local government web resources and services.